createdAt,value
2023-01-01T00:00:34.129Z,13.24
2023-01-01T00:05:38.763Z,13.20
2023-01-01T00:10:40.161Z,13.10
2023-01-01T00:15:41.637Z,13.01
2023-01-01T00:20:43.057Z,12.97
2023-01-01T00:25:44.518Z,13.04
2023-01-01T00:30:45.953Z,13.47
2023-01-01T00:35:47.417Z,13.93
2023-01-01T00:40:48.845Z,14.23
2023-01-01T00:45:52.980Z,14.38
2023-01-01T00:50:54.730Z,14.50
2023-01-01T00:55:56.577Z,14.49
2023-01-01T01:00:58.211Z,14.62
2023-01-01T01:06:10.417Z,14.57
2023-01-01T01:11:15.287Z,14.54
2023-01-01T01:16:24.006Z,14.64
2023-01-01T01:21:27.034Z,14.63
2023-01-01T01:26:31.546Z,14.62
2023-01-01T01:31:34.525Z,14.61
2023-01-01T01:36:36.004Z,14.60
2023-01-01T01:41:37.647Z,14.64
2023-01-01T01:46:44.513Z,14.63
2023-01-01T01:51:46.415Z,14.61
2023-01-01T01:56:53.761Z,14.64
2023-01-01T02:01:55.823Z,14.65
2023-01-01T02:06:57.423Z,14.63
2023-01-01T02:11:59.346Z,14.65
2023-01-01T02:17:08.667Z,14.67
2023-01-01T02:22:28.091Z,14.86
2023-01-01T02:28:21.020Z,15.01
2023-01-01T02:33:25.756Z,15.11
2023-01-01T02:38:41.246Z,15.15
2023-01-01T02:43:43.093Z,15.31
2023-01-01T02:48:50.493Z,15.37
2023-01-01T02:53:57.805Z,15.40
2023-01-01T02:59:45.478Z,15.47
2023-01-01T03:05:02.914Z,15.55
2023-01-01T03:10:04.395Z,15.54
2023-01-01T03:15:25.144Z,15.60
2023-01-01T03:20:31.567Z,15.52
2023-01-01T03:25:40.315Z,15.64
2023-01-01T03:30:45.636Z,15.54
2023-01-01T03:35:53.899Z,15.49
2023-01-01T03:41:01.281Z,15.40
2023-01-01T03:46:05.377Z,15.37
2023-01-01T03:51:26.935Z,15.26
2023-01-01T03:56:41.033Z,15.26
2023-01-01T04:01:51.386Z,15.03
2023-01-01T04:06:53.921Z,14.89
2023-01-01T04:12:06.700Z,14.84
2023-01-01T04:17:10.220Z,14.74
2023-01-01T04:22:11.658Z,14.74
2023-01-01T04:27:13.139Z,14.75
2023-01-01T04:32:14.723Z,14.78
2023-01-01T04:37:16.195Z,14.78
2023-01-01T04:42:17.652Z,14.79
2023-01-01T04:47:19.078Z,14.73
2023-01-01T04:52:20.771Z,14.76
2023-01-01T04:57:22.204Z,14.79
2023-01-01T05:02:23.963Z,14.79
2023-01-01T05:07:25.439Z,14.75
2023-01-01T05:12:27.002Z,14.71
2023-01-01T05:17:28.805Z,14.70
2023-01-01T05:22:30.212Z,14.79
2023-01-01T05:27:31.634Z,14.72
2023-01-01T05:32:33.293Z,14.69
2023-01-01T05:37:35.176Z,14.73
2023-01-01T05:42:36.604Z,14.71
2023-01-01T05:47:38.034Z,14.77
2023-01-01T05:52:39.624Z,14.79
2023-01-01T05:57:41.051Z,14.72
2023-01-01T06:02:42.510Z,14.67
2023-01-01T06:07:48.434Z,14.57
2023-01-01T06:12:50.261Z,14.37
2023-01-01T06:17:51.836Z,14.34
2023-01-01T06:22:53.237Z,14.31
2023-01-01T06:27:54.658Z,14.38
2023-01-01T06:32:56.076Z,14.28
2023-01-01T06:38:00.402Z,14.35
2023-01-01T06:43:01.857Z,14.07
2023-01-01T06:48:03.419Z,14.05
2023-01-01T06:53:04.831Z,13.94
2023-01-01T06:58:09.810Z,14.02
2023-01-01T07:03:11.475Z,14.00
2023-01-01T07:08:13.063Z,14.07
2023-01-01T07:13:14.473Z,14.11
2023-01-01T07:18:15.917Z,14.04
2023-01-01T07:23:17.364Z,14.07
2023-01-01T07:28:19.640Z,14.08
2023-01-01T07:33:23.349Z,14.04
2023-01-01T07:38:24.776Z,14.09
2023-01-01T07:43:26.188Z,14.15
2023-01-01T07:48:28.193Z,14.28
2023-01-01T07:53:29.635Z,14.35
2023-01-01T07:58:31.093Z,14.49
2023-01-01T08:03:32.511Z,14.74
2023-01-01T08:08:33.978Z,15.01
2023-01-01T08:13:35.671Z,15.07
2023-01-01T08:18:37.461Z,15.14
2023-01-01T08:23:38.908Z,15.21
2023-01-01T08:28:40.358Z,15.31
2023-01-01T08:33:41.768Z,15.50
2023-01-01T08:38:43.763Z,15.43
2023-01-01T08:43:45.191Z,15.48
2023-01-01T08:48:46.602Z,15.61
2023-01-01T08:53:51.342Z,15.66
2023-01-01T08:58:55.146Z,15.84
2023-01-01T09:03:58.934Z,15.93
2023-01-01T09:09:00.348Z,16.10
2023-01-01T09:14:01.805Z,16.19
2023-01-01T09:19:03.273Z,16.34
2023-01-01T09:24:04.957Z,16.32
2023-01-01T09:29:06.361Z,16.49
2023-01-01T09:34:07.764Z,16.48
2023-01-01T09:39:12.362Z,16.34
2023-01-01T09:44:44.650Z,16.33
2023-01-01T09:49:49.242Z,16.34
2023-01-01T09:54:57.209Z,16.37
2023-01-01T09:59:59.588Z,16.41
2023-01-01T10:05:44.751Z,16.44
2023-01-01T10:11:14.104Z,16.57
2023-01-01T10:16:24.058Z,16.65
2023-01-01T10:21:33.987Z,16.79
2023-01-01T10:26:37.658Z,16.93
2023-01-01T10:31:42.577Z,17.26
2023-01-01T10:36:44.777Z,17.26
2023-01-01T10:41:48.485Z,17.21
2023-01-01T10:46:56.623Z,17.42
2023-01-01T10:51:59.284Z,17.76
2023-01-01T10:57:14.150Z,17.83
2023-01-01T11:02:24.726Z,17.90
2023-01-01T11:07:33.945Z,17.88
2023-01-01T11:18:28.229Z,17.53
2023-01-01T11:23:36.151Z,17.74
2023-01-01T11:28:37.709Z,17.82
2023-01-01T11:33:45.392Z,17.81
2023-01-01T11:39:02.927Z,17.86
2023-01-01T11:44:04.938Z,17.85
2023-01-01T11:49:15.229Z,17.78
2023-01-01T11:54:36.121Z,17.85
2023-01-01T11:59:51.051Z,17.84
2023-01-01T12:05:06.203Z,18.01
2023-01-01T12:10:23.272Z,18.04
2023-01-01T12:15:31.616Z,17.86
2023-01-01T12:20:52.945Z,17.85
2023-01-01T12:26:19.429Z,17.62
2023-01-01T12:31:43.939Z,17.71
2023-01-01T12:37:06.173Z,17.75
2023-01-01T12:42:32.755Z,17.64
2023-01-01T12:47:34.108Z,17.54
2023-01-01T12:52:49.532Z,17.68
2023-01-01T12:58:27.160Z,17.90
2023-01-01T13:03:35.199Z,17.72
2023-01-01T13:08:37.945Z,17.71
2023-01-01T13:13:39.570Z,17.60
2023-01-01T13:18:41.080Z,17.81
2023-01-01T13:23:47.572Z,17.77
2023-01-01T13:28:57.901Z,17.58
2023-01-01T13:34:30.380Z,17.57
2023-01-01T13:39:50.448Z,17.45
2023-01-01T13:44:51.978Z,17.33
2023-01-01T13:50:10.143Z,17.18
2023-01-01T13:55:43.478Z,17.28
2023-01-01T14:01:14.688Z,17.05
2023-01-01T14:06:28.005Z,17.05
2023-01-01T14:11:29.571Z,16.94
2023-01-01T14:16:31.187Z,16.76
2023-01-01T14:21:34.322Z,16.70
2023-01-01T14:26:38.769Z,16.49
2023-01-01T14:31:43.815Z,16.19
2023-01-01T14:36:54.235Z,16.23
2023-01-01T14:42:00.177Z,16.33
2023-01-01T14:47:03.261Z,16.23
2023-01-01T14:52:13.198Z,15.90
2023-01-01T14:57:20.464Z,15.76
2023-01-01T15:02:30.523Z,15.59
2023-01-01T15:07:32.169Z,15.54
2023-01-01T15:12:34.797Z,15.55
2023-01-01T15:17:47.494Z,15.44
2023-01-01T15:22:50.359Z,15.30
2023-01-01T15:27:54.477Z,15.27
2023-01-01T15:32:56.568Z,15.27
2023-01-01T15:38:17.830Z,15.27
2023-01-01T15:43:25.436Z,15.24
2023-01-01T15:48:34.928Z,15.25
2023-01-01T15:53:58.284Z,15.20
2023-01-01T15:59:31.324Z,15.15
2023-01-01T16:04:32.857Z,15.32
2023-01-01T16:09:36.004Z,15.22
2023-01-01T16:14:37.481Z,15.35
2023-01-01T16:19:39.057Z,15.26
2023-01-01T16:24:40.486Z,15.30
2023-01-01T16:29:43.562Z,15.25
2023-01-01T16:34:45.347Z,15.20
2023-01-01T16:39:46.775Z,15.09
2023-01-01T16:44:48.269Z,15.02
2023-01-01T16:49:49.685Z,14.98
2023-01-01T16:54:51.089Z,14.90
2023-01-01T16:59:52.559Z,14.81
2023-01-01T17:04:53.982Z,14.88
2023-01-01T17:09:55.441Z,14.87
2023-01-01T17:14:56.855Z,14.74
2023-01-01T17:19:58.292Z,14.86
2023-01-01T17:24:59.717Z,14.76
2023-01-01T17:30:01.195Z,14.67
2023-01-01T17:35:03.958Z,14.62
2023-01-01T17:40:06.006Z,14.58
2023-01-01T17:45:08.448Z,14.50
2023-01-01T17:50:09.981Z,14.43
2023-01-01T17:55:11.413Z,14.40
2023-01-01T18:00:13.275Z,14.34
2023-01-01T18:05:14.716Z,14.24
2023-01-01T18:10:16.293Z,14.18
2023-01-01T18:15:17.719Z,14.18
2023-01-01T18:20:19.166Z,14.15
2023-01-01T18:25:20.636Z,14.17
2023-01-01T18:30:22.636Z,14.09
2023-01-01T18:35:24.091Z,14.04
2023-01-01T18:40:27.220Z,14.00
2023-01-01T18:45:28.670Z,13.94
2023-01-01T18:50:31.999Z,13.91
2023-01-01T18:55:33.424Z,13.81
2023-01-01T19:00:37.163Z,13.69
2023-01-01T19:05:38.715Z,13.58
2023-01-01T19:10:44.067Z,13.50
2023-01-01T19:15:51.870Z,13.41
2023-01-01T19:21:02.417Z,13.46
2023-01-01T19:26:06.001Z,13.40
2023-01-01T19:31:09.495Z,13.33
2023-01-01T19:36:10.989Z,13.23
2023-01-01T19:41:12.527Z,13.12
2023-01-01T19:46:14.119Z,13.08
2023-01-01T19:51:15.816Z,13.00
2023-01-01T19:56:18.116Z,12.90
2023-01-01T20:01:19.932Z,12.78
2023-01-01T20:06:21.497Z,12.71
2023-01-01T20:11:23.304Z,12.69
2023-01-01T20:16:24.906Z,12.59
2023-01-01T20:21:44.914Z,12.56
2023-01-01T20:26:46.345Z,12.55
2023-01-01T20:31:52.891Z,12.52
2023-01-01T20:37:13.002Z,12.50
2023-01-01T20:42:14.441Z,12.46
2023-01-01T20:47:15.858Z,12.39
2023-01-01T20:52:17.423Z,12.46
2023-01-01T20:57:18.861Z,12.40
2023-01-01T21:02:20.476Z,12.29
2023-01-01T21:07:23.377Z,12.25
2023-01-01T21:12:24.816Z,12.22
2023-01-01T21:17:27.829Z,12.17
2023-01-01T21:22:29.305Z,12.07
2023-01-01T21:27:33.846Z,11.97
2023-01-01T21:32:44.754Z,11.79
2023-01-01T21:37:50.009Z,12.00
2023-01-01T21:42:58.314Z,12.28
2023-01-01T21:48:14.370Z,12.34
2023-01-01T21:53:24.209Z,12.28
2023-01-01T21:58:50.517Z,12.26
2023-01-01T22:03:59.844Z,12.12
2023-01-01T22:09:02.245Z,12.23
2023-01-01T22:14:12.786Z,12.28
2023-01-01T22:19:19.390Z,12.07
2023-01-01T22:24:35.409Z,12.12
2023-01-01T22:29:36.861Z,12.08
2023-01-01T22:34:38.314Z,11.99
2023-01-01T22:39:39.768Z,11.88
2023-01-01T22:44:41.450Z,12.09
2023-01-01T22:49:47.105Z,12.12
2023-01-01T22:54:48.572Z,12.15
2023-01-01T22:59:50.071Z,12.06
2023-01-01T23:04:51.480Z,11.85
2023-01-01T23:09:53.147Z,11.92
2023-01-01T23:15:14.308Z,11.78
2023-01-01T23:20:15.788Z,11.86
2023-01-01T23:25:19.551Z,11.86
2023-01-01T23:30:21.182Z,11.76
2023-01-01T23:35:22.649Z,11.78
2023-01-01T23:40:24.115Z,11.86
2023-01-01T23:45:25.719Z,12.02
2023-01-01T23:50:27.153Z,12.05
2023-01-01T23:55:28.622Z,12.04
